Terminal Aerodrome Forecast
Issued by NWS

Home | Current Version | Previous Version | Graphics & Text | Print | Product List | Glossary On
Versions: 1 2 3 4 5 6 7 8 9 10 11 12 13 14 15 16 17 18 19 20 21 22 23 24 25 26 27
000
FTUS43 KICT 181137
TAFCNU
TAF
KCNU 181137Z 1812/1912 07005KT 2SM -SN SCT005 OVC025
     FM181400 08005KT 4SM BR OVC008
     FM181800 07005KT 4SM BR BKN007 OVC015=

USA.gov is the U.S. government's official web portal to all federal, state and local government web resources and services.